Sheboygan, WI

8:31 PM CDT on May 29, 2015 (GMT -0500)
Central | | Change Station
CLOSE
Current Station
Personal Weather Station
Location: Sheboygan, WI
Elevation: 630 ft
Nearby Weather Stations

Elev 630 ft 43.74 °N, 87.73 °W | Updated 1 minute ago

Mostly Cloudy
Mostly Cloudy
62.6 °F
Feels Like 62.6 °F
N
2.0
Wind Variable Wind from South
Gusts 5.0 mph

Today
High -- | Low -- °F
--% Chance of Precip.
Yesterday
High -- | Low -- °F
Precip. -- in
5:13 AM 8:23 PM
Waxing Gibbous, 87% visible
Pressure 29.87 in
Visibility 2.5 miles
Clouds Few 300 ft
Mostly Cloudy 12000 ft
Dew Point 61 °F
Humidity 96%
Rainfall 0.27 in
Snow Depth Not available.
UV 0 out of 12
Pollen 5.20 out of 12
Air Quality Not available.
Flu Activity Sporadic
SPECI KSBM 300124Z AUTO 18005KT 2 1/2SM BR FEW003 BKN120 19/18 A2987 RMK AO2 T01890183

More Conditions Fewer Conditions

Pressure 29.87 in
Visibility 2.5 miles
Clouds Few 300 ft
Mostly Cloudy 12000 ft
Dew Point 61 °F
Humidity 96%
Rainfall 0.27 in
Snow Depth Not available.
UV 0 out of 12
Pollen 5.20 out of 12
Air Quality Not available.
Flu Activity Sporadic
SPECI KSBM 300124Z AUTO 18005KT 2 1/2SM BR FEW003 BKN120 19/18 A2987 RMK AO2 T01890183

More Conditions Fewer Conditions

10-Day Weather Forecast

Almanac

Astronomy

May. 29, 2015 Rise Set
Actual Time
Civil Twilight
Nautical Twilight
Astronomical Twilight
Moon
Length of Visible Light
Length of Day
Tomorrow will be .
, % of the Moon is Illuminated

Today's Extremes

State Highs State Lows

Community

WunderPhotos

Upload Photos

1,825,415 photos uploaded!

WunderBlogs® & News

Nearby

Air Quality

  Air Quality AQ Index Pollutant
Not available.

Snow Depth

Station Depth Elevation

Earthquake Activity

City Distance Mag. Time & Date
Minimum magnitude displayed is 2.5.

Coastal Water Temperatures

Place Temperature

Stations

Nearby Weather Stations

Station Location Temp. Windchill Dew Point Humidity Wind Precip. Elev Updated Type